Pearl Of Scandinavia — OWFU2 — position and weather

sailwx.info

Track history (hours):
 
Tides and Currents Weather Stations Pressure Air Temp Water Temp Dewpoint Dewpoint Depression Visibility Wind Speed Wind Dir Waves Ship Positions

Pearl Of Scandinavia

Last reported at 2019-Jul-22 04:56 UTC. Time now 2019-Jul-22 05:27 UTC.
Position N 56°15' E 012°25'.

Length 176.4 m; beam 34 m; draft 6.215 m.

Type: Ship. MMSI: 219945000.

Date/timePositionNaut miles runAvg speedWind from/ knotsBaromVisibWave heightAir tempDewpointWater temp
2019-Jul-22 04:56N 56°15' E 012°25'6116.8
2019-Jul-22 01:17N 57°14' E 011°51'517.3
2019-Jul-22 01:00N 57°17' E 011°46'917.3
2019-Jul-22 00:31N 57°24' E 011°36'917.7
2019-Jul-22 00:01N 57°32' E 011°28'917.7
2019-Jul-21 23:31N 57°40' E 011°21'917.7
2019-Jul-21 23:01N 57°48' E 011°13'917.5
2019-Jul-21 22:31N 57°56' E 011°08'917.0
2019-Jul-21 22:01N 58°04' E 011°01'816.6
2019-Jul-21 21:31N 58°11' E 010°54'816.3
2019-Jul-21 21:01N 58°18' E 010°47'816.6
2019-Jul-21 20:30N 58°26' E 010°41'816.5
2019-Jul-21 20:00N 58°34' E 010°38'917.1
2019-Jul-21 19:30N 58°43' E 010°38'816.6
2019-Jul-21 19:00N 58°51' E 010°38'917.5
2019-Jul-21 18:31N 58°60' E 010°38'917.4
2019-Jul-21 18:00N 59°08' E 010°38'816.9
2019-Jul-21 17:31N 59°17' E 010°36'917.1
2019-Jul-21 17:01N 59°25' E 010°33'917.1
2019-Jul-21 16:31N 59°34' E 010°37'815.0
2019-Jul-21 16:00N 59°41' E 010°36'815.5
2019-Jul-21 15:30N 59°49' E 010°34'714.5
2019-Jul-21 15:00N 59°54' E 010°44'0 0.8
2019-Jul-21 14:30N 59°54' E 010°45'0 0.0
2019-Jul-21 13:59N 59°54' E 010°45'0 0.0
2019-Jul-21 13:29N 59°54' E 010°45'0 0.0
2019-Jul-21 12:59N 59°54' E 010°45'0 0.0
2019-Jul-21 12:29N 59°54' E 010°45'0 0.0
2019-Jul-21 11:59N 59°54' E 010°45'0 0.0
2019-Jul-21 11:29N 59°54' E 010°45'0 0.0
2019-Jul-21 10:59N 59°54' E 010°45'0 0.0
2019-Jul-21 10:29N 59°54' E 010°45'0 0.0
2019-Jul-21 09:59N 59°54' E 010°45'0 0.0
2019-Jul-21 09:29N 59°54' E 010°45'0 0.0
2019-Jul-21 08:59N 59°54' E 010°45'0 0.0
2019-Jul-21 08:29N 59°54' E 010°45'0 0.0
2019-Jul-21 07:59N 59°54' E 010°45'0 0.5
2019-Jul-21 07:31N 59°54' E 010°44'712.8
2019-Jul-21 07:00N 59°49' E 010°35'714.4
2019-Jul-21 06:31N 59°42' E 010°36'714.4
2019-Jul-21 06:01N 59°35' E 010°38'815.6
2019-Jul-21 05:31N 59°28' E 010°34'815.9
2019-Jul-21 05:01N 59°20' E 010°36'816.2
2019-Jul-21 04:31N 59°12' E 010°39'816.2
2019-Jul-21 04:01N 59°04' E 010°41'815.8
2019-Jul-21 03:30N 58°56' E 010°42'815.7
2019-Jul-21 03:00N 58°48' E 010°44'815.6
2019-Jul-21 02:30N 58°40' E 010°46'815.5
2019-Jul-21 01:59N 58°33' E 010°51'815.8
2019-Jul-21 01:31N 58°26' E 010°56'815.7
2019-Jul-21 01:00N 58°18' E 011°01'815.6
2019-Jul-21 00:30N 58°11' E 011°05'815.9
2019-Jul-21 00:01N 58°03' E 011°10'816.3
2019-Jul-20 23:31N 57°56' E 011°15'816.2
2019-Jul-20 23:00N 57°48' E 011°20'816.1
2019-Jul-20 22:31N 57°40' E 011°24'816.3
2019-Jul-20 22:01N 57°32' E 011°29'815.4
2019-Jul-20 21:30N 57°26' E 011°37'816.2
2019-Jul-20 21:00N 57°19' E 011°45'816.4
2019-Jul-20 20:31N 57°12' E 011°53'816.0
2019-Jul-20 20:01N 57°05' E 011°59'816.0
2019-Jul-20 19:30N 56°58' E 012°05'5216.1
2019-Jul-20 16:15N 56°07' E 012°33'418.6
2019-Jul-20 16:01N 56°04' E 012°38'816.3
2019-Jul-20 15:31N 55°56' E 012°43'815.7
2019-Jul-20 15:01N 55°49' E 012°43'713.1
2019-Jul-20 14:30N 55°43' E 012°38'1 2.4
2019-Jul-20 13:59N 55°42' E 012°36'0 0.0
2019-Jul-20 13:23N 55°42' E 012°36'0 0.0
2019-Jul-20 12:59N 55°42' E 012°36'0 0.0
2019-Jul-20 12:29N 55°42' E 012°36'0 0.0
2019-Jul-20 11:56N 55°42' E 012°36'0 0.0
2019-Jul-20 09:56N 55°42' E 012°36'0 0.0
2019-Jul-20 09:29N 55°42' E 012°36'0 0.0
2019-Jul-20 08:59N 55°42' E 012°36'0 0.0
2019-Jul-20 08:26N 55°42' E 012°36'0 0.0
2019-Jul-20 07:56N 55°42' E 012°36'0 0.8
2019-Jul-20 07:31N 55°42' E 012°36'5 9.2
2019-Jul-20 07:01N 55°46' E 012°41'713.8
2019-Jul-20 06:31N 55°53' E 012°40'714.4
2019-Jul-20 06:01N 56°00' E 012°40'713.9
2019-Jul-20 05:30N 56°06' E 012°33'714.5
2019-Jul-20 05:00N 56°12' E 012°27'815.5
2019-Jul-20 04:29N 56°20' E 012°22'714.9
2019-Jul-20 04:00N 56°27' E 012°19'714.5
2019-Jul-20 03:29N 56°34' E 012°17'914.9
2019-Jul-20 02:55N 56°42' E 012°13'2114.9
2019-Jul-20 01:31N 57°02' E 012°01'115.0
2019-Jul-20 01:26N 57°03' E 011°60'1016.0
2019-Jul-20 00:49N 57°13' E 011°53'516.1
2019-Jul-20 00:29N 57°17' E 011°48'816.7
2019-Jul-20 00:00N 57°23' E 011°39'917.3
2019-Jul-19 23:30N 57°30' E 011°29'816.7
2019-Jul-19 23:00N 57°37' E 011°20'817.0
2019-Jul-19 22:30N 57°44' E 011°10'816.6
2019-Jul-19 22:00N 57°51' E 011°04'817.0
2019-Jul-19 21:30N 57°59' E 010°59'917.1
2019-Jul-19 21:00N 58°07' E 010°53'917.1
2019-Jul-19 20:30N 58°15' E 010°48'917.3
2019-Jul-19 20:00N 58°24' E 010°42'917.4
2019-Jul-19 19:29N 58°32' E 010°39'817.1
2019-Jul-19 19:00N 58°41' E 010°38'917.6
2019-Jul-19 18:30N 58°49' E 010°37'918.1
2019-Jul-19 18:00N 58°59' E 010°38'917.8
2019-Jul-19 17:30N 59°07' E 010°38'917.5
2019-Jul-19 17:00N 59°16' E 010°36'917.5
2019-Jul-19 16:30N 59°25' E 010°33'917.3
2019-Jul-19 16:00N 59°33' E 010°37'815.5
2019-Jul-19 15:31N 59°41' E 010°37'815.9
2019-Jul-19 15:01N 59°49' E 010°34'714.5
2019-Jul-19 14:30N 59°54' E 010°44'0 0.6
2019-Jul-19 14:00N 59°54' E 010°45'0 0.0
2019-Jul-19 13:29N 59°54' E 010°45'0 0.0
2019-Jul-19 12:59N 59°54' E 010°45'0 0.0
2019-Jul-19 12:29N 59°54' E 010°45'0 0.0
2019-Jul-19 11:59N 59°54' E 010°45'0 0.0
2019-Jul-19 11:29N 59°54' E 010°45'0 0.0
2019-Jul-19 10:59N 59°54' E 010°45'0 0.0
2019-Jul-19 10:29N 59°54' E 010°45'0 0.0
2019-Jul-19 09:59N 59°54' E 010°45'0 0.0
2019-Jul-19 09:29N 59°54' E 010°45'0 0.0
2019-Jul-19 08:59N 59°54' E 010°45'0 0.0
2019-Jul-19 08:29N 59°54' E 010°45'0 0.0
2019-Jul-19 07:59N 59°54' E 010°45'1 1.1
2019-Jul-19 07:30N 59°54' E 010°44'713.5
2019-Jul-19 07:00N 59°49' E 010°35'714.3
2019-Jul-19 06:30N 59°42' E 010°36'714.3
2019-Jul-19 06:01N 59°35' E 010°38'815.4
2019-Jul-19 05:30N 59°27' E 010°34'815.3
2019-Jul-19 05:01N 59°20' E 010°36'816.2
2019-Jul-19 04:30N 59°12' E 010°39'816.1
2019-Jul-19 04:01N 59°04' E 010°41'815.9
2019-Jul-19 03:31N 58°56' E 010°42'815.6
2019-Jul-19 03:00N 58°48' E 010°44'815.7
2019-Jul-19 02:30N 58°40' E 010°46'715.4
2019-Jul-19 02:01N 58°33' E 010°51'815.8
2019-Jul-19 01:30N 58°26' E 010°56'815.9
2019-Jul-19 01:00N 58°18' E 011°01'816.1
2019-Jul-19 00:30N 58°10' E 011°05'816.3
2019-Jul-19 00:00N 58°03' E 011°10'816.0
2019-Jul-18 23:30N 57°55' E 011°15'816.2
2019-Jul-18 23:00N 57°47' E 011°20'816.3
2019-Jul-18 22:31N 57°40' E 011°26'816.3
2019-Jul-18 22:01N 57°32' E 011°32'815.8
2019-Jul-18 21:30N 57°25' E 011°38'815.8
2019-Jul-18 21:01N 57°19' E 011°46'816.3
2019-Jul-18 20:31N 57°12' E 011°54'816.3
2019-Jul-18 20:00N 57°04' E 012°00'816.0
2019-Jul-18 19:31N 56°57' E 012°06'815.5
2019-Jul-18 19:00N 56°50' E 012°10'815.4
2019-Jul-18 18:30N 56°42' E 012°14'815.7
2019-Jul-18 18:00N 56°34' E 012°17'815.5
2019-Jul-18 17:30N 56°27' E 012°20'815.9
2019-Jul-18 17:00N 56°19' E 012°23'816.1
2019-Jul-18 16:30N 56°12' E 012°29'817.0
2019-Jul-18 16:01N 56°05' E 012°37'816.7
2019-Jul-18 15:30N 55°57' E 012°43'815.9
2019-Jul-18 15:01N 55°49' E 012°43'714.3
2019-Jul-18 14:30N 55°43' E 012°37'1 1.9
2019-Jul-18 13:58N 55°42' E 012°36'0 0.0
2019-Jul-18 13:27N 55°42' E 012°36'0 0.0
2019-Jul-18 12:51N 55°42' E 012°36'0 0.0
2019-Jul-18 12:30N 55°42' E 012°36'0 0.0
2019-Jul-18 12:00N 55°42' E 012°36'0 0.0
2019-Jul-18 11:30N 55°42' E 012°36'0 0.0
2019-Jul-18 10:57N 55°42' E 012°36'0 0.0
2019-Jul-18 10:27N 55°42' E 012°36'0 0.0
2019-Jul-18 09:54N 55°42' E 012°36'0 0.0
2019-Jul-18 09:30N 55°42' E 012°36'0 0.0
2019-Jul-18 09:00N 55°42' E 012°36'0 0.0
2019-Jul-18 08:27N 55°42' E 012°36'0 0.0
2019-Jul-18 07:57N 55°42' E 012°36'0 0.8
2019-Jul-18 07:30N 55°42' E 012°36'510.8
2019-Jul-18 07:01N 55°47' E 012°42'714.9
2019-Jul-18 06:30N 55°54' E 012°39'815.3
2019-Jul-18 06:01N 56°02' E 012°39'714.6
2019-Jul-18 05:31N 56°07' E 012°31'714.8
2019-Jul-18 05:00N 56°14' E 012°26'714.8
2019-Jul-18 04:30N 56°21' E 012°21'815.5
2019-Jul-18 04:00N 56°29' E 012°17'1115.5
2019-Jul-18 03:16N 56°39' E 012°11'616.1
2019-Jul-18 02:52N 56°46' E 012°07'2915.6
2019-Jul-18 01:00N 57°14' E 011°51'816.0
2019-Jul-18 00:31N 57°20' E 011°43'816.9
2019-Jul-18 00:00N 57°27' E 011°34'816.9
2019-Jul-17 23:31N 57°34' E 011°26'816.8
2019-Jul-17 23:01N 57°42' E 011°20'816.6
2019-Jul-17 22:30N 57°49' E 011°13'817.0
2019-Jul-17 22:00N 57°57' E 011°06'917.2
2019-Jul-17 21:31N 58°05' E 010°60'917.4
2019-Jul-17 21:00N 58°13' E 010°53'917.2
2019-Jul-17 20:31N 58°20' E 010°46'816.9
2019-Jul-17 20:00N 58°28' E 010°39'816.1
2019-Jul-17 19:30N 58°36' E 010°38'816.3
2019-Jul-17 19:00N 58°44' E 010°38'917.1
2019-Jul-17 18:30N 58°53' E 010°39'917.2
2019-Jul-17 18:00N 59°01' E 010°39'917.0
2019-Jul-17 17:30N 59°10' E 010°38'816.9
2019-Jul-17 17:01N 59°18' E 010°36'816.6
2019-Jul-17 16:30N 59°27' E 010°33'816.5
2019-Jul-17 16:01N 59°34' E 010°38'714.5
2019-Jul-17 15:31N 59°42' E 010°36'815.7
2019-Jul-17 15:01N 59°49' E 010°34'713.4
2019-Jul-17 14:30N 59°54' E 010°45'0 0.2
2019-Jul-17 13:58N 59°54' E 010°45'0 0.0
2019-Jul-17 13:28N 59°54' E 010°45'0 0.0
2019-Jul-17 12:58N 59°54' E 010°45'0 0.0
2019-Jul-17 12:28N 59°54' E 010°45'0 0.0
2019-Jul-17 11:58N 59°54' E 010°45'0 0.0
2019-Jul-17 11:28N 59°54' E 010°45'0 0.0
2019-Jul-17 10:58N 59°54' E 010°45'0 0.0
2019-Jul-17 10:28N 59°54' E 010°45'0 0.0
2019-Jul-17 09:58N 59°54' E 010°45'0 0.0
2019-Jul-17 09:28N 59°54' E 010°45'0 0.0
2019-Jul-17 08:58N 59°54' E 010°45'0 0.0
2019-Jul-17 08:28N 59°54' E 010°45'0 0.0
2019-Jul-17 07:58N 59°54' E 010°45'0 0.6
2019-Jul-17 07:30N 59°54' E 010°44'713.4
2019-Jul-17 07:00N 59°49' E 010°35'715.0
2019-Jul-17 06:30N 59°42' E 010°36'714.0
2019-Jul-17 06:00N 59°35' E 010°38'816.1
2019-Jul-17 05:31N 59°27' E 010°34'815.9
2019-Jul-17 05:01N 59°19' E 010°36'815.9
2019-Jul-17 04:31N 59°11' E 010°39'815.5
2019-Jul-17 04:01N 59°04' E 010°41'815.6
2019-Jul-17 03:30N 58°56' E 010°42'815.8
2019-Jul-17 03:01N 58°48' E 010°44'815.8
2019-Jul-17 02:30N 58°40' E 010°47'816.1
2019-Jul-17 02:01N 58°33' E 010°51'815.9
2019-Jul-17 01:31N 58°25' E 010°56'815.7
2019-Jul-17 01:00N 58°18' E 011°01'816.3
2019-Jul-17 00:30N 58°10' E 011°06'816.4
2019-Jul-17 00:00N 58°02' E 011°11'816.6
2019-Jul-16 23:30N 57°54' E 011°16'816.9
2019-Jul-16 23:01N 57°46' E 011°21'816.6
2019-Jul-16 22:31N 57°39' E 011°27'816.7
2019-Jul-16 22:00N 57°31' E 011°33'816.0
2019-Jul-16 21:30N 57°24' E 011°41'815.8
2019-Jul-16 21:01N 57°18' E 011°49'815.9
2019-Jul-16 20:30N 57°10' E 011°55'816.1
2019-Jul-16 20:00N 57°03' E 012°01'815.8
2019-Jul-16 19:29N 56°55' E 012°07'815.9
2019-Jul-16 19:00N 56°48' E 012°11'815.9
2019-Jul-16 18:29N 56°40' E 012°14'3515.6
2019-Jul-16 16:15N 56°07' E 012°34'416.4
2019-Jul-16 16:01N 56°04' E 012°38'815.9
2019-Jul-16 15:30N 55°56' E 012°43'815.7
2019-Jul-16 15:00N 55°48' E 012°43'714.0
2019-Jul-16 14:30N 55°42' E 012°37'1 1.0
2019-Jul-16 13:55N 55°42' E 012°36'0 0.0
2019-Jul-16 13:28N 55°42' E 012°36'0 0.0
2019-Jul-16 12:58N 55°42' E 012°36'0 0.0
2019-Jul-16 12:28N 55°42' E 012°36'0 0.0
2019-Jul-16 11:52N 55°42' E 012°36'0 0.0
2019-Jul-16 11:25N 55°42' E 012°36'0 0.0
2019-Jul-16 10:55N 55°42' E 012°36'0 0.0
2019-Jul-16 10:28N 55°42' E 012°36'0 0.0
2019-Jul-16 09:58N 55°42' E 012°36'0 0.0
2019-Jul-16 09:28N 55°42' E 012°36'0 0.0
2019-Jul-16 08:58N 55°42' E 012°36'0 0.0
2019-Jul-16 08:28N 55°42' E 012°36'0 0.0
2019-Jul-16 07:55N 55°42' E 012°36'0 0.9
2019-Jul-16 07:30N 55°42' E 012°36'510.7
2019-Jul-16 07:00N 55°47' E 012°42'713.3
2019-Jul-16 06:30N 55°53' E 012°40'713.6
2019-Jul-16 06:00N 56°00' E 012°40'713.5
2019-Jul-16 05:31N 56°06' E 012°34'714.3
2019-Jul-16 05:01N 56°12' E 012°27'1014.8
2019-Jul-16 04:22N 56°21' E 012°21'5516.0
2019-Jul-16 00:55N 57°14' E 011°51'716.4
2019-Jul-16 00:31N 57°19' E 011°45'816.6
2019-Jul-16 00:00N 57°26' E 011°35'917.2
2019-Jul-15 23:30N 57°33' E 011°27'917.2
2019-Jul-15 23:01N 57°41' E 011°20'917.3
2019-Jul-15 22:30N 57°49' E 011°13'917.0
2019-Jul-15 22:00N 57°57' E 011°07'816.8
2019-Jul-15 21:31N 58°04' E 011°01'917.1
2019-Jul-15 21:01N 58°12' E 010°54'917.1
2019-Jul-15 20:30N 58°20' E 010°48'917.6
2019-Jul-15 20:00N 58°28' E 010°42'917.2
2019-Jul-15 19:30N 58°37' E 010°38'817.0
2019-Jul-15 19:00N 58°45' E 010°38'816.7
2019-Jul-15 18:30N 58°54' E 010°38'816.6
2019-Jul-15 18:01N 59°02' E 010°38'816.3
2019-Jul-15 17:31N 59°10' E 010°38'816.6
2019-Jul-15 17:00N 59°18' E 010°36'816.9
2019-Jul-15 16:31N 59°26' E 010°33'816.3
2019-Jul-15 16:01N 59°34' E 010°38'714.7
2019-Jul-15 15:30N 59°42' E 010°36'816.0
2019-Jul-15 15:00N 59°50' E 010°34'713.5
2019-Jul-15 14:30N 59°54' E 010°45'0 0.3
2019-Jul-15 13:59N 59°54' E 010°45'0 0.0
2019-Jul-15 13:29N 59°54' E 010°45'0 0.0
2019-Jul-15 12:59N 59°54' E 010°45'0 0.0
2019-Jul-15 12:29N 59°54' E 010°45'0 0.0
2019-Jul-15 11:59N 59°54' E 010°45'0 0.0
2019-Jul-15 11:29N 59°54' E 010°45'0 0.0
2019-Jul-15 10:59N 59°54' E 010°45'0 0.0
2019-Jul-15 10:29N 59°54' E 010°45'0 0.0
2019-Jul-15 09:59N 59°54' E 010°45'0 0.0
2019-Jul-15 09:29N 59°54' E 010°45'0 0.0
2019-Jul-15 08:59N 59°54' E 010°45'0 0.0
2019-Jul-15 08:29N 59°54' E 010°45'0 0.0
2019-Jul-15 07:59N 59°54' E 010°45'0 0.3
2019-Jul-15 07:30N 59°54' E 010°44'713.9
2019-Jul-15 07:00N 59°49' E 010°35'815.0
2019-Jul-15 06:30N 59°41' E 010°36'713.9
2019-Jul-15 06:01N 59°35' E 010°38'815.5
2019-Jul-15 05:31N 59°27' E 010°34'815.7
2019-Jul-15 05:01N 59°19' E 010°36'816.0
2019-Jul-15 04:31N 59°12' E 010°39'816.4
2019-Jul-15 04:01N 59°03' E 010°41'816.3
2019-Jul-15 03:30N 58°55' E 010°43'816.4
2019-Jul-15 03:00N 58°47' E 010°44'917.0
2019-Jul-15 02:30N 58°39' E 010°47'917.4
2019-Jul-15 01:59N 58°30' E 010°52'917.8
2019-Jul-15 01:30N 58°22' E 010°57'917.5
2019-Jul-15 01:00N 58°14' E 011°02'817.2
2019-Jul-15 00:30N 58°06' E 011°07'917.2
2019-Jul-15 00:01N 57°57' E 011°12'816.4
2019-Jul-14 23:31N 57°50' E 011°18'816.6
2019-Jul-14 23:01N 57°42' E 011°24'816.5
2019-Jul-14 22:30N 57°35' E 011°30'816.2
2019-Jul-14 22:01N 57°27' E 011°36'815.9
2019-Jul-14 21:31N 57°20' E 011°44'816.6
2019-Jul-14 21:00N 57°13' E 011°53'816.9
2019-Jul-14 20:30N 57°06' E 011°59'816.4
2019-Jul-14 20:01N 56°58' E 012°04'815.6
2019-Jul-14 19:30N 56°51' E 012°10'715.1
2019-Jul-14 19:00N 56°44' E 012°13'814.5
2019-Jul-14 18:28N 56°36' E 012°16'1914.9
2019-Jul-14 17:11N 56°17' E 012°24'515.9
2019-Jul-14 16:52N 56°13' E 012°28'615.9
2019-Jul-14 16:29N 56°07' E 012°33'715.5
2019-Jul-14 16:01N 56°01' E 012°40'612.1
2019-Jul-14 15:30N 55°56' E 012°44'713.7
2019-Jul-14 15:01N 55°49' E 012°43'713.9
2019-Jul-14 14:30N 55°43' E 012°37'1 1.8
2019-Jul-14 13:55N 55°42' E 012°36'0 0.0
2019-Jul-14 13:28N 55°42' E 012°36'0 0.0
2019-Jul-14 12:58N 55°42' E 012°36'0 0.0
2019-Jul-14 12:28N 55°42' E 012°36'0 0.0
2019-Jul-14 11:58N 55°42' E 012°36'0 0.0
2019-Jul-14 11:28N 55°42' E 012°36'0 0.0
2019-Jul-14 10:58N 55°42' E 012°36'0 0.0
2019-Jul-14 10:25N 55°42' E 012°36'0 0.0
2019-Jul-14 09:58N 55°42' E 012°36'0 0.0
2019-Jul-14 09:28N 55°42' E 012°36'0 0.0
2019-Jul-14 08:58N 55°42' E 012°36'0 0.0
2019-Jul-14 08:28N 55°42' E 012°36'0 0.0
2019-Jul-14 07:58N 55°42' E 012°36'0 0.7
2019-Jul-14 07:31N 55°42' E 012°36'510.8
2019-Jul-14 07:01N 55°47' E 012°42'713.6
2019-Jul-14 06:30N 55°54' E 012°40'714.2
2019-Jul-14 06:00N 56°01' E 012°40'714.1
2019-Jul-14 05:30N 56°06' E 012°33'714.3
2019-Jul-14 05:00N 56°13' E 012°27'6415.4
2019-Jul-14 00:52N 57°14' E 011°51'616.6
2019-Jul-14 00:30N 57°18' E 011°45'817.0
2019-Jul-14 00:01N 57°25' E 011°36'817.0
2019-Jul-13 23:31N 57°33' E 011°29'816.8
2019-Jul-13 23:01N 57°40' E 011°21'816.7
2019-Jul-13 22:31N 57°48' E 011°14'816.9
2019-Jul-13 22:01N 57°56' E 011°08'816.5
2019-Jul-13 21:30N 58°03' E 011°01'816.2
2019-Jul-13 21:00N 58°10' E 010°55'816.9
2019-Jul-13 20:31N 58°18' E 010°48'816.9
2019-Jul-13 20:01N 58°26' E 010°41'816.7
2019-Jul-13 19:31N 58°34' E 010°38'917.1
2019-Jul-13 19:01N 58°43' E 010°38'917.4
2019-Jul-13 18:31N 58°51' E 010°38'917.9
2019-Jul-13 18:01N 59°00' E 010°38'917.8
2019-Jul-13 17:31N 59°09' E 010°38'917.6
2019-Jul-13 17:01N 59°18' E 010°36'917.3
2019-Jul-13 16:31N 59°26' E 010°33'816.8
2019-Jul-13 16:01N 59°34' E 010°38'814.8
2019-Jul-13 15:30N 59°42' E 010°35'815.7
2019-Jul-13 15:00N 59°49' E 010°34'713.3
2019-Jul-13 14:30N 59°54' E 010°44'0 0.3
2019-Jul-13 14:00N 59°54' E 010°45'0 0.0
2019-Jul-13 13:30N 59°54' E 010°45'0 0.0
2019-Jul-13 12:59N 59°54' E 010°45'0 0.0
2019-Jul-13 12:30N 59°54' E 010°45'0 0.0
2019-Jul-13 12:00N 59°54' E 010°45'0 0.0
2019-Jul-13 11:30N 59°54' E 010°45'0 0.0
2019-Jul-13 11:00N 59°54' E 010°45'0 0.0
2019-Jul-13 10:30N 59°54' E 010°45'0 0.0
2019-Jul-13 10:00N 59°54' E 010°45'0 0.0
2019-Jul-13 09:30N 59°54' E 010°45'0 0.0
2019-Jul-13 09:00N 59°54' E 010°45'0 0.0
2019-Jul-13 08:29N 59°54' E 010°45'0 0.0
2019-Jul-13 08:00N 59°54' E 010°45'1 1.9
2019-Jul-13 07:30N 59°54' E 010°43'715.1
2019-Jul-13 07:00N 59°48' E 010°35'714.2
2019-Jul-13 06:30N 59°41' E 010°37'714.3
2019-Jul-13 06:00N 59°34' E 010°38'815.2
2019-Jul-13 05:30N 59°26' E 010°34'816.0
2019-Jul-13 05:00N 59°18' E 010°36'815.9
2019-Jul-13 04:30N 59°11' E 010°39'815.8
2019-Jul-13 04:00N 59°03' E 010°41'816.0
2019-Jul-13 03:30N 58°55' E 010°42'815.7
2019-Jul-13 03:00N 58°47' E 010°44'815.8
2019-Jul-13 02:30N 58°39' E 010°48'816.6
2019-Jul-13 02:00N 58°31' E 010°52'917.3
2019-Jul-13 01:30N 58°23' E 010°57'917.4
2019-Jul-13 01:00N 58°15' E 011°03'917.3
2019-Jul-13 00:30N 58°07' E 011°08'816.5
2019-Jul-13 00:00N 57°59' E 011°13'816.5
2019-Jul-12 23:30N 57°51' E 011°18'816.7
2019-Jul-12 23:01N 57°43' E 011°24'917.1
2019-Jul-12 22:31N 57°36' E 011°31'816.4
2019-Jul-12 22:00N 57°28' E 011°35'816.4
2019-Jul-12 21:30N 57°21' E 011°44'816.8
2019-Jul-12 21:00N 57°14' E 011°52'917.1
2019-Jul-12 20:31N 57°06' E 011°58'816.9
2019-Jul-12 20:00N 56°58' E 012°05'816.6
2019-Jul-12 19:30N 56°51' E 012°10'816.4
2019-Jul-12 19:00N 56°42' E 012°13'715.2
2019-Jul-12 18:30N 56°35' E 012°16'2915.3
2019-Jul-12 16:35N 56°07' E 012°33'116.8
2019-Jul-12 16:30N 56°06' E 012°34'815.5
2019-Jul-12 16:01N 55°60' E 012°41'815.9
2019-Jul-12 15:30N 55°52' E 012°45'815.3
2019-Jul-12 15:01N 55°45' E 012°41'4 6.4
2019-Jul-12 14:26N 55°42' E 012°36'0 0.0
2019-Jul-12 13:58N 55°42' E 012°36'0 0.0
2019-Jul-12 13:28N 55°42' E 012°36'0 0.0
2019-Jul-12 12:58N 55°42' E 012°36'0 0.0
2019-Jul-12 12:25N 55°42' E 012°36'0 0.0
2019-Jul-12 11:58N 55°42' E 012°36'0 0.0
2019-Jul-12 10:34N 55°42' E 012°36'0 0.0
2019-Jul-12 10:25N 55°42' E 012°36'0 0.0
2019-Jul-12 09:55N 55°42' E 012°36'0 0.0
2019-Jul-12 08:58N 55°42' E 012°36'0 0.0
2019-Jul-12 07:42N 55°42' E 012°36'0 1.9
2019-Jul-12 07:31N 55°42' E 012°36'510.4
2019-Jul-12 07:00N 55°47' E 012°42'713.9
2019-Jul-12 06:30N 55°54' E 012°40'714.1
2019-Jul-12 06:00N 56°01' E 012°40'713.2
2019-Jul-12 05:31N 56°06' E 012°33'714.3
2019-Jul-12 05:01N 56°12' E 012°27'  
Track history (hours):
 
Tides and Currents Weather Stations Pressure Air Temp Water Temp Dewpoint Dewpoint Depression Visibility Wind Speed Wind Dir Waves Ship Positions

Pearl Of Scandinavia

Last reported at 2019-Jul-22 04:56 UTC. Time now 2019-Jul-22 05:27 UTC.
Position N 56°15' E 012°25'.

Length 176.4 m; beam 34 m; draft 6.215 m.

Type: Ship. MMSI: 219945000.

Date/timePositionNaut miles runAvg speedWind from/ knotsBaromVisibWave heightAir tempDewpointWater temp
2019-Jul-22 04:56N 56°15' E 012°25'6116.8
2019-Jul-22 01:17N 57°14' E 011°51'517.3
2019-Jul-22 01:00N 57°17' E 011°46'917.3
2019-Jul-22 00:31N 57°24' E 011°36'917.7
2019-Jul-22 00:01N 57°32' E 011°28'917.7
2019-Jul-21 23:31N 57°40' E 011°21'917.7
2019-Jul-21 23:01N 57°48' E 011°13'917.5
2019-Jul-21 22:31N 57°56' E 011°08'917.0
2019-Jul-21 22:01N 58°04' E 011°01'816.6
2019-Jul-21 21:31N 58°11' E 010°54'816.3
2019-Jul-21 21:01N 58°18' E 010°47'816.6
2019-Jul-21 20:30N 58°26' E 010°41'816.5
2019-Jul-21 20:00N 58°34' E 010°38'917.1
2019-Jul-21 19:30N 58°43' E 010°38'816.6
2019-Jul-21 19:00N 58°51' E 010°38'917.5
2019-Jul-21 18:31N 58°60' E 010°38'917.4
2019-Jul-21 18:00N 59°08' E 010°38'816.9
2019-Jul-21 17:31N 59°17' E 010°36'917.1
2019-Jul-21 17:01N 59°25' E 010°33'917.1
2019-Jul-21 16:31N 59°34' E 010°37'815.0
2019-Jul-21 16:00N 59°41' E 010°36'815.5
2019-Jul-21 15:30N 59°49' E 010°34'714.5
2019-Jul-21 15:00N 59°54' E 010°44'0 0.8
2019-Jul-21 14:30N 59°54' E 010°45'0 0.0
2019-Jul-21 13:59N 59°54' E 010°45'0 0.0
2019-Jul-21 13:29N 59°54' E 010°45'0 0.0
2019-Jul-21 12:59N 59°54' E 010°45'0 0.0
2019-Jul-21 12:29N 59°54' E 010°45'0 0.0
2019-Jul-21 11:59N 59°54' E 010°45'0 0.0
2019-Jul-21 11:29N 59°54' E 010°45'0 0.0
2019-Jul-21 10:59N 59°54' E 010°45'0 0.0
2019-Jul-21 10:29N 59°54' E 010°45'0 0.0
2019-Jul-21 09:59N 59°54' E 010°45'0 0.0
2019-Jul-21 09:29N 59°54' E 010°45'0 0.0
2019-Jul-21 08:59N 59°54' E 010°45'0 0.0
2019-Jul-21 08:29N 59°54' E 010°45'0 0.0
2019-Jul-21 07:59N 59°54' E 010°45'0 0.5
2019-Jul-21 07:31N 59°54' E 010°44'712.8
2019-Jul-21 07:00N 59°49' E 010°35'714.4
2019-Jul-21 06:31N 59°42' E 010°36'714.4
2019-Jul-21 06:01N 59°35' E 010°38'815.6
2019-Jul-21 05:31N 59°28' E 010°34'815.9
2019-Jul-21 05:01N 59°20' E 010°36'816.2
2019-Jul-21 04:31N 59°12' E 010°39'816.2
2019-Jul-21 04:01N 59°04' E 010°41'815.8
2019-Jul-21 03:30N 58°56' E 010°42'815.7
2019-Jul-21 03:00N 58°48' E 010°44'815.6
2019-Jul-21 02:30N 58°40' E 010°46'815.5
2019-Jul-21 01:59N 58°33' E 010°51'815.8
2019-Jul-21 01:31N 58°26' E 010°56'815.7
2019-Jul-21 01:00N 58°18' E 011°01'815.6
2019-Jul-21 00:30N 58°11' E 011°05'815.9
2019-Jul-21 00:01N 58°03' E 011°10'816.3
2019-Jul-20 23:31N 57°56' E 011°15'816.2
2019-Jul-20 23:00N 57°48' E 011°20'816.1
2019-Jul-20 22:31N 57°40' E 011°24'816.3
2019-Jul-20 22:01N 57°32' E 011°29'815.4
2019-Jul-20 21:30N 57°26' E 011°37'816.2
2019-Jul-20 21:00N 57°19' E 011°45'816.4
2019-Jul-20 20:31N 57°12' E 011°53'816.0
2019-Jul-20 20:01N 57°05' E 011°59'816.0
2019-Jul-20 19:30N 56°58' E 012°05'5216.1
2019-Jul-20 16:15N 56°07' E 012°33'418.6
2019-Jul-20 16:01N 56°04' E 012°38'816.3
2019-Jul-20 15:31N 55°56' E 012°43'815.7
2019-Jul-20 15:01N 55°49' E 012°43'713.1
2019-Jul-20 14:30N 55°43' E 012°38'1 2.4
2019-Jul-20 13:59N 55°42' E 012°36'0 0.0
2019-Jul-20 13:23N 55°42' E 012°36'0 0.0
2019-Jul-20 12:59N 55°42' E 012°36'0 0.0
2019-Jul-20 12:29N 55°42' E 012°36'0 0.0
2019-Jul-20 11:56N 55°42' E 012°36'0 0.0
2019-Jul-20 09:56N 55°42' E 012°36'0 0.0
2019-Jul-20 09:29N 55°42' E 012°36'0 0.0
2019-Jul-20 08:59N 55°42' E 012°36'0 0.0
2019-Jul-20 08:26N 55°42' E 012°36'0 0.0
2019-Jul-20 07:56N 55°42' E 012°36'0 0.8
2019-Jul-20 07:31N 55°42' E 012°36'5 9.2
2019-Jul-20 07:01N 55°46' E 012°41'713.8
2019-Jul-20 06:31N 55°53' E 012°40'714.4
2019-Jul-20 06:01N 56°00' E 012°40'713.9
2019-Jul-20 05:30N 56°06' E 012°33'714.5
2019-Jul-20 05:00N 56°12' E 012°27'815.5
2019-Jul-20 04:29N 56°20' E 012°22'714.9
2019-Jul-20 04:00N 56°27' E 012°19'714.5
2019-Jul-20 03:29N 56°34' E 012°17'914.9
2019-Jul-20 02:55N 56°42' E 012°13'2114.9
2019-Jul-20 01:31N 57°02' E 012°01'115.0
2019-Jul-20 01:26N 57°03' E 011°60'1016.0
2019-Jul-20 00:49N 57°13' E 011°53'516.1
2019-Jul-20 00:29N 57°17' E 011°48'816.7
2019-Jul-20 00:00N 57°23' E 011°39'917.3
2019-Jul-19 23:30N 57°30' E 011°29'816.7
2019-Jul-19 23:00N 57°37' E 011°20'817.0
2019-Jul-19 22:30N 57°44' E 011°10'816.6
2019-Jul-19 22:00N 57°51' E 011°04'817.0
2019-Jul-19 21:30N 57°59' E 010°59'917.1
2019-Jul-19 21:00N 58°07' E 010°53'917.1
2019-Jul-19 20:30N 58°15' E 010°48'917.3
2019-Jul-19 20:00N 58°24' E 010°42'917.4
2019-Jul-19 19:29N 58°32' E 010°39'817.1
2019-Jul-19 19:00N 58°41' E 010°38'917.6
2019-Jul-19 18:30N 58°49' E 010°37'918.1
2019-Jul-19 18:00N 58°59' E 010°38'917.8
2019-Jul-19 17:30N 59°07' E 010°38'917.5
2019-Jul-19 17:00N 59°16' E 010°36'917.5
2019-Jul-19 16:30N 59°25' E 010°33'917.3
2019-Jul-19 16:00N 59°33' E 010°37'815.5
2019-Jul-19 15:31N 59°41' E 010°37'815.9
2019-Jul-19 15:01N 59°49' E 010°34'714.5
2019-Jul-19 14:30N 59°54' E 010°44'0 0.6
2019-Jul-19 14:00N 59°54' E 010°45'0 0.0
2019-Jul-19 13:29N 59°54' E 010°45'0 0.0
2019-Jul-19 12:59N 59°54' E 010°45'0 0.0
2019-Jul-19 12:29N 59°54' E 010°45'0 0.0
2019-Jul-19 11:59N 59°54' E 010°45'0 0.0
2019-Jul-19 11:29N 59°54' E 010°45'0 0.0
2019-Jul-19 10:59N 59°54' E 010°45'0 0.0
2019-Jul-19 10:29N 59°54' E 010°45'0 0.0
2019-Jul-19 09:59N 59°54' E 010°45'0 0.0
2019-Jul-19 09:29N 59°54' E 010°45'0 0.0
2019-Jul-19 08:59N 59°54' E 010°45'0 0.0
2019-Jul-19 08:29N 59°54' E 010°45'0 0.0
2019-Jul-19 07:59N 59°54' E 010°45'1 1.1
2019-Jul-19 07:30N 59°54' E 010°44'713.5
2019-Jul-19 07:00N 59°49' E 010°35'714.3
2019-Jul-19 06:30N 59°42' E 010°36'714.3
2019-Jul-19 06:01N 59°35' E 010°38'815.4
2019-Jul-19 05:30N 59°27' E 010°34'815.3
2019-Jul-19 05:01N 59°20' E 010°36'816.2
2019-Jul-19 04:30N 59°12' E 010°39'816.1
2019-Jul-19 04:01N 59°04' E 010°41'815.9
2019-Jul-19 03:31N 58°56' E 010°42'815.6
2019-Jul-19 03:00N 58°48' E 010°44'815.7
2019-Jul-19 02:30N 58°40' E 010°46'715.4
2019-Jul-19 02:01N 58°33' E 010°51'815.8
2019-Jul-19 01:30N 58°26' E 010°56'815.9
2019-Jul-19 01:00N 58°18' E 011°01'816.1
2019-Jul-19 00:30N 58°10' E 011°05'816.3
2019-Jul-19 00:00N 58°03' E 011°10'816.0
2019-Jul-18 23:30N 57°55' E 011°15'816.2
2019-Jul-18 23:00N 57°47' E 011°20'816.3
2019-Jul-18 22:31N 57°40' E 011°26'816.3
2019-Jul-18 22:01N 57°32' E 011°32'815.8
2019-Jul-18 21:30N 57°25' E 011°38'815.8
2019-Jul-18 21:01N 57°19' E 011°46'816.3
2019-Jul-18 20:31N 57°12' E 011°54'816.3
2019-Jul-18 20:00N 57°04' E 012°00'816.0
2019-Jul-18 19:31N 56°57' E 012°06'815.5
2019-Jul-18 19:00N 56°50' E 012°10'815.4
2019-Jul-18 18:30N 56°42' E 012°14'815.7
2019-Jul-18 18:00N 56°34' E 012°17'815.5
2019-Jul-18 17:30N 56°27' E 012°20'815.9
2019-Jul-18 17:00N 56°19' E 012°23'816.1
2019-Jul-18 16:30N 56°12' E 012°29'817.0
2019-Jul-18 16:01N 56°05' E 012°37'816.7
2019-Jul-18 15:30N 55°57' E 012°43'815.9
2019-Jul-18 15:01N 55°49' E 012°43'714.3
2019-Jul-18 14:30N 55°43' E 012°37'1 1.9
2019-Jul-18 13:58N 55°42' E 012°36'0 0.0
2019-Jul-18 13:27N 55°42' E 012°36'0 0.0
2019-Jul-18 12:51N 55°42' E 012°36'0 0.0
2019-Jul-18 12:30N 55°42' E 012°36'0 0.0
2019-Jul-18 12:00N 55°42' E 012°36'0 0.0
2019-Jul-18 11:30N 55°42' E 012°36'0 0.0
2019-Jul-18 10:57N 55°42' E 012°36'0 0.0
2019-Jul-18 10:27N 55°42' E 012°36'0 0.0
2019-Jul-18 09:54N 55°42' E 012°36'0 0.0
2019-Jul-18 09:30N 55°42' E 012°36'0 0.0
2019-Jul-18 09:00N 55°42' E 012°36'0 0.0
2019-Jul-18 08:27N 55°42' E 012°36'0 0.0
2019-Jul-18 07:57N 55°42' E 012°36'0 0.8
2019-Jul-18 07:30N 55°42' E 012°36'510.8
2019-Jul-18 07:01N 55°47' E 012°42'714.9
2019-Jul-18 06:30N 55°54' E 012°39'815.3
2019-Jul-18 06:01N 56°02' E 012°39'714.6
2019-Jul-18 05:31N 56°07' E 012°31'714.8
2019-Jul-18 05:00N 56°14' E 012°26'714.8
2019-Jul-18 04:30N 56°21' E 012°21'815.5
2019-Jul-18 04:00N 56°29' E 012°17'1115.5
2019-Jul-18 03:16N 56°39' E 012°11'616.1
2019-Jul-18 02:52N 56°46' E 012°07'2915.6
2019-Jul-18 01:00N 57°14' E 011°51'816.0
2019-Jul-18 00:31N 57°20' E 011°43'816.9
2019-Jul-18 00:00N 57°27' E 011°34'816.9
2019-Jul-17 23:31N 57°34' E 011°26'816.8
2019-Jul-17 23:01N 57°42' E 011°20'816.6
2019-Jul-17 22:30N 57°49' E 011°13'817.0
2019-Jul-17 22:00N 57°57' E 011°06'917.2
2019-Jul-17 21:31N 58°05' E 010°60'917.4
2019-Jul-17 21:00N 58°13' E 010°53'917.2
2019-Jul-17 20:31N 58°20' E 010°46'816.9
2019-Jul-17 20:00N 58°28' E 010°39'816.1
2019-Jul-17 19:30N 58°36' E 010°38'816.3
2019-Jul-17 19:00N 58°44' E 010°38'917.1
2019-Jul-17 18:30N 58°53' E 010°39'917.2
2019-Jul-17 18:00N 59°01' E 010°39'917.0
2019-Jul-17 17:30N 59°10' E 010°38'816.9
2019-Jul-17 17:01N 59°18' E 010°36'816.6
2019-Jul-17 16:30N 59°27' E 010°33'816.5
2019-Jul-17 16:01N 59°34' E 010°38'714.5
2019-Jul-17 15:31N 59°42' E 010°36'815.7
2019-Jul-17 15:01N 59°49' E 010°34'713.4
2019-Jul-17 14:30N 59°54' E 010°45'0 0.2
2019-Jul-17 13:58N 59°54' E 010°45'0 0.0
2019-Jul-17 13:28N 59°54' E 010°45'0 0.0
2019-Jul-17 12:58N 59°54' E 010°45'0 0.0
2019-Jul-17 12:28N 59°54' E 010°45'0 0.0
2019-Jul-17 11:58N 59°54' E 010°45'0 0.0
2019-Jul-17 11:28N 59°54' E 010°45'0 0.0
2019-Jul-17 10:58N 59°54' E 010°45'0 0.0
2019-Jul-17 10:28N 59°54' E 010°45'0 0.0
2019-Jul-17 09:58N 59°54' E 010°45'0 0.0
2019-Jul-17 09:28N 59°54' E 010°45'0 0.0
2019-Jul-17 08:58N 59°54' E 010°45'0 0.0
2019-Jul-17 08:28N 59°54' E 010°45'0 0.0
2019-Jul-17 07:58N 59°54' E 010°45'0 0.6
2019-Jul-17 07:30N 59°54' E 010°44'713.4
2019-Jul-17 07:00N 59°49' E 010°35'715.0
2019-Jul-17 06:30N 59°42' E 010°36'714.0
2019-Jul-17 06:00N 59°35' E 010°38'816.1
2019-Jul-17 05:31N 59°27' E 010°34'815.9
2019-Jul-17 05:01N 59°19' E 010°36'815.9
2019-Jul-17 04:31N 59°11' E 010°39'815.5
2019-Jul-17 04:01N 59°04' E 010°41'815.6
2019-Jul-17 03:30N 58°56' E 010°42'815.8
2019-Jul-17 03:01N 58°48' E 010°44'815.8
2019-Jul-17 02:30N 58°40' E 010°47'816.1
2019-Jul-17 02:01N 58°33' E 010°51'815.9
2019-Jul-17 01:31N 58°25' E 010°56'815.7
2019-Jul-17 01:00N 58°18' E 011°01'816.3
2019-Jul-17 00:30N 58°10' E 011°06'816.4
2019-Jul-17 00:00N 58°02' E 011°11'816.6
2019-Jul-16 23:30N 57°54' E 011°16'816.9
2019-Jul-16 23:01N 57°46' E 011°21'816.6
2019-Jul-16 22:31N 57°39' E 011°27'816.7
2019-Jul-16 22:00N 57°31' E 011°33'816.0
2019-Jul-16 21:30N 57°24' E 011°41'815.8
2019-Jul-16 21:01N 57°18' E 011°49'815.9
2019-Jul-16 20:30N 57°10' E 011°55'816.1
2019-Jul-16 20:00N 57°03' E 012°01'815.8
2019-Jul-16 19:29N 56°55' E 012°07'815.9
2019-Jul-16 19:00N 56°48' E 012°11'815.9
2019-Jul-16 18:29N 56°40' E 012°14'3515.6
2019-Jul-16 16:15N 56°07' E 012°34'416.4
2019-Jul-16 16:01N 56°04' E 012°38'815.9
2019-Jul-16 15:30N 55°56' E 012°43'815.7
2019-Jul-16 15:00N 55°48' E 012°43'714.0
2019-Jul-16 14:30N 55°42' E 012°37'1 1.0
2019-Jul-16 13:55N 55°42' E 012°36'0 0.0
2019-Jul-16 13:28N 55°42' E 012°36'0 0.0
2019-Jul-16 12:58N 55°42' E 012°36'0 0.0
2019-Jul-16 12:28N 55°42' E 012°36'0 0.0
2019-Jul-16 11:52N 55°42' E 012°36'0 0.0
2019-Jul-16 11:25N 55°42' E 012°36'0 0.0
2019-Jul-16 10:55N 55°42' E 012°36'0 0.0
2019-Jul-16 10:28N 55°42' E 012°36'0 0.0
2019-Jul-16 09:58N 55°42' E 012°36'0 0.0
2019-Jul-16 09:28N 55°42' E 012°36'0 0.0
2019-Jul-16 08:58N 55°42' E 012°36'0 0.0
2019-Jul-16 08:28N 55°42' E 012°36'0 0.0
2019-Jul-16 07:55N 55°42' E 012°36'0 0.9
2019-Jul-16 07:30N 55°42' E 012°36'510.7
2019-Jul-16 07:00N 55°47' E 012°42'713.3
2019-Jul-16 06:30N 55°53' E 012°40'713.6
2019-Jul-16 06:00N 56°00' E 012°40'713.5
2019-Jul-16 05:31N 56°06' E 012°34'714.3
2019-Jul-16 05:01N 56°12' E 012°27'1014.8
2019-Jul-16 04:22N 56°21' E 012°21'5516.0
2019-Jul-16 00:55N 57°14' E 011°51'716.4
2019-Jul-16 00:31N 57°19' E 011°45'816.6
2019-Jul-16 00:00N 57°26' E 011°35'917.2
2019-Jul-15 23:30N 57°33' E 011°27'917.2
2019-Jul-15 23:01N 57°41' E 011°20'917.3
2019-Jul-15 22:30N 57°49' E 011°13'917.0
2019-Jul-15 22:00N 57°57' E 011°07'816.8
2019-Jul-15 21:31N 58°04' E 011°01'917.1
2019-Jul-15 21:01N 58°12' E 010°54'917.1
2019-Jul-15 20:30N 58°20' E 010°48'917.6
2019-Jul-15 20:00N 58°28' E 010°42'917.2
2019-Jul-15 19:30N 58°37' E 010°38'817.0
2019-Jul-15 19:00N 58°45' E 010°38'816.7
2019-Jul-15 18:30N 58°54' E 010°38'816.6
2019-Jul-15 18:01N 59°02' E 010°38'816.3
2019-Jul-15 17:31N 59°10' E 010°38'816.6
2019-Jul-15 17:00N 59°18' E 010°36'816.9
2019-Jul-15 16:31N 59°26' E 010°33'816.3
2019-Jul-15 16:01N 59°34' E 010°38'714.7
2019-Jul-15 15:30N 59°42' E 010°36'816.0
2019-Jul-15 15:00N 59°50' E 010°34'713.5
2019-Jul-15 14:30N 59°54' E 010°45'0 0.3
2019-Jul-15 13:59N 59°54' E 010°45'0 0.0
2019-Jul-15 13:29N 59°54' E 010°45'0 0.0
2019-Jul-15 12:59N 59°54' E 010°45'0 0.0
2019-Jul-15 12:29N 59°54' E 010°45'0 0.0
2019-Jul-15 11:59N 59°54' E 010°45'0 0.0
2019-Jul-15 11:29N 59°54' E 010°45'0 0.0
2019-Jul-15 10:59N 59°54' E 010°45'0 0.0
2019-Jul-15 10:29N 59°54' E 010°45'0 0.0
2019-Jul-15 09:59N 59°54' E 010°45'0 0.0
2019-Jul-15 09:29N 59°54' E 010°45'0 0.0
2019-Jul-15 08:59N 59°54' E 010°45'0 0.0
2019-Jul-15 08:29N 59°54' E 010°45'0 0.0
2019-Jul-15 07:59N 59°54' E 010°45'0 0.3
2019-Jul-15 07:30N 59°54' E 010°44'713.9
2019-Jul-15 07:00N 59°49' E 010°35'815.0
2019-Jul-15 06:30N 59°41' E 010°36'713.9
2019-Jul-15 06:01N 59°35' E 010°38'815.5
2019-Jul-15 05:31N 59°27' E 010°34'815.7
2019-Jul-15 05:01N 59°19' E 010°36'816.0
2019-Jul-15 04:31N 59°12' E 010°39'816.4
2019-Jul-15 04:01N 59°03' E 010°41'816.3
2019-Jul-15 03:30N 58°55' E 010°43'816.4
2019-Jul-15 03:00N 58°47' E 010°44'917.0
2019-Jul-15 02:30N 58°39' E 010°47'917.4
2019-Jul-15 01:59N 58°30' E 010°52'917.8
2019-Jul-15 01:30N 58°22' E 010°57'917.5
2019-Jul-15 01:00N 58°14' E 011°02'817.2
2019-Jul-15 00:30N 58°06' E 011°07'917.2
2019-Jul-15 00:01N 57°57' E 011°12'816.4
2019-Jul-14 23:31N 57°50' E 011°18'816.6
2019-Jul-14 23:01N 57°42' E 011°24'816.5
2019-Jul-14 22:30N 57°35' E 011°30'816.2
2019-Jul-14 22:01N 57°27' E 011°36'815.9
2019-Jul-14 21:31N 57°20' E 011°44'816.6
2019-Jul-14 21:00N 57°13' E 011°53'816.9
2019-Jul-14 20:30N 57°06' E 011°59'816.4
2019-Jul-14 20:01N 56°58' E 012°04'815.6
2019-Jul-14 19:30N 56°51' E 012°10'715.1
2019-Jul-14 19:00N 56°44' E 012°13'814.5
2019-Jul-14 18:28N 56°36' E 012°16'1914.9
2019-Jul-14 17:11N 56°17' E 012°24'515.9
2019-Jul-14 16:52N 56°13' E 012°28'615.9
2019-Jul-14 16:29N 56°07' E 012°33'715.5
2019-Jul-14 16:01N 56°01' E 012°40'612.1
2019-Jul-14 15:30N 55°56' E 012°44'713.7
2019-Jul-14 15:01N 55°49' E 012°43'713.9
2019-Jul-14 14:30N 55°43' E 012°37'1 1.8
2019-Jul-14 13:55N 55°42' E 012°36'0 0.0
2019-Jul-14 13:28N 55°42' E 012°36'0 0.0
2019-Jul-14 12:58N 55°42' E 012°36'0 0.0
2019-Jul-14 12:28N 55°42' E 012°36'0 0.0
2019-Jul-14 11:58N 55°42' E 012°36'0 0.0
2019-Jul-14 11:28N 55°42' E 012°36'0 0.0
2019-Jul-14 10:58N 55°42' E 012°36'0 0.0
2019-Jul-14 10:25N 55°42' E 012°36'0 0.0
2019-Jul-14 09:58N 55°42' E 012°36'0 0.0
2019-Jul-14 09:28N 55°42' E 012°36'0 0.0
2019-Jul-14 08:58N 55°42' E 012°36'0 0.0
2019-Jul-14 08:28N 55°42' E 012°36'0 0.0
2019-Jul-14 07:58N 55°42' E 012°36'0 0.7
2019-Jul-14 07:31N 55°42' E 012°36'510.8
2019-Jul-14 07:01N 55°47' E 012°42'713.6
2019-Jul-14 06:30N 55°54' E 012°40'714.2
2019-Jul-14 06:00N 56°01' E 012°40'714.1
2019-Jul-14 05:30N 56°06' E 012°33'714.3
2019-Jul-14 05:00N 56°13' E 012°27'6415.4
2019-Jul-14 00:52N 57°14' E 011°51'616.6
2019-Jul-14 00:30N 57°18' E 011°45'817.0
2019-Jul-14 00:01N 57°25' E 011°36'817.0
2019-Jul-13 23:31N 57°33' E 011°29'816.8
2019-Jul-13 23:01N 57°40' E 011°21'816.7
2019-Jul-13 22:31N 57°48' E 011°14'816.9
2019-Jul-13 22:01N 57°56' E 011°08'816.5
2019-Jul-13 21:30N 58°03' E 011°01'816.2
2019-Jul-13 21:00N 58°10' E 010°55'816.9
2019-Jul-13 20:31N 58°18' E 010°48'816.9
2019-Jul-13 20:01N 58°26' E 010°41'816.7
2019-Jul-13 19:31N 58°34' E 010°38'917.1
2019-Jul-13 19:01N 58°43' E 010°38'917.4
2019-Jul-13 18:31N 58°51' E 010°38'917.9
2019-Jul-13 18:01N 59°00' E 010°38'917.8
2019-Jul-13 17:31N 59°09' E 010°38'917.6
2019-Jul-13 17:01N 59°18' E 010°36'917.3
2019-Jul-13 16:31N 59°26' E 010°33'816.8
2019-Jul-13 16:01N 59°34' E 010°38'814.8
2019-Jul-13 15:30N 59°42' E 010°35'815.7
2019-Jul-13 15:00N 59°49' E 010°34'713.3
2019-Jul-13 14:30N 59°54' E 010°44'0 0.3
2019-Jul-13 14:00N 59°54' E 010°45'0 0.0
2019-Jul-13 13:30N 59°54' E 010°45'0 0.0
2019-Jul-13 12:59N 59°54' E 010°45'0 0.0
2019-Jul-13 12:30N 59°54' E 010°45'0 0.0
2019-Jul-13 12:00N 59°54' E 010°45'0 0.0
2019-Jul-13 11:30N 59°54' E 010°45'0 0.0
2019-Jul-13 11:00N 59°54' E 010°45'0 0.0
2019-Jul-13 10:30N 59°54' E 010°45'0 0.0
2019-Jul-13 10:00N 59°54' E 010°45'0 0.0
2019-Jul-13 09:30N 59°54' E 010°45'0 0.0
2019-Jul-13 09:00N 59°54' E 010°45'0 0.0
2019-Jul-13 08:29N 59°54' E 010°45'0 0.0
2019-Jul-13 08:00N 59°54' E 010°45'1 1.9
2019-Jul-13 07:30N 59°54' E 010°43'715.1
2019-Jul-13 07:00N 59°48' E 010°35'714.2
2019-Jul-13 06:30N 59°41' E 010°37'714.3
2019-Jul-13 06:00N 59°34' E 010°38'815.2
2019-Jul-13 05:30N 59°26' E 010°34'816.0
2019-Jul-13 05:00N 59°18' E 010°36'815.9
2019-Jul-13 04:30N 59°11' E 010°39'815.8
2019-Jul-13 04:00N 59°03' E 010°41'816.0
2019-Jul-13 03:30N 58°55' E 010°42'815.7
2019-Jul-13 03:00N 58°47' E 010°44'815.8
2019-Jul-13 02:30N 58°39' E 010°48'816.6
2019-Jul-13 02:00N 58°31' E 010°52'917.3
2019-Jul-13 01:30N 58°23' E 010°57'917.4
2019-Jul-13 01:00N 58°15' E 011°03'917.3
2019-Jul-13 00:30N 58°07' E 011°08'816.5
2019-Jul-13 00:00N 57°59' E 011°13'816.5
2019-Jul-12 23:30N 57°51' E 011°18'816.7
2019-Jul-12 23:01N 57°43' E 011°24'917.1
2019-Jul-12 22:31N 57°36' E 011°31'816.4
2019-Jul-12 22:00N 57°28' E 011°35'816.4
2019-Jul-12 21:30N 57°21' E 011°44'816.8
2019-Jul-12 21:00N 57°14' E 011°52'917.1
2019-Jul-12 20:31N 57°06' E 011°58'816.9
2019-Jul-12 20:00N 56°58' E 012°05'816.6
2019-Jul-12 19:30N 56°51' E 012°10'816.4
2019-Jul-12 19:00N 56°42' E 012°13'715.2
2019-Jul-12 18:30N 56°35' E 012°16'2915.3
2019-Jul-12 16:35N 56°07' E 012°33'116.8
2019-Jul-12 16:30N 56°06' E 012°34'815.5
2019-Jul-12 16:01N 55°60' E 012°41'815.9
2019-Jul-12 15:30N 55°52' E 012°45'815.3
2019-Jul-12 15:01N 55°45' E 012°41'4 6.4
2019-Jul-12 14:26N 55°42' E 012°36'0 0.0
2019-Jul-12 13:58N 55°42' E 012°36'0 0.0
2019-Jul-12 13:28N 55°42' E 012°36'0 0.0
2019-Jul-12 12:58N 55°42' E 012°36'0 0.0
2019-Jul-12 12:25N 55°42' E 012°36'0 0.0
2019-Jul-12 11:58N 55°42' E 012°36'0 0.0
2019-Jul-12 10:34N 55°42' E 012°36'0 0.0
2019-Jul-12 10:25N 55°42' E 012°36'0 0.0
2019-Jul-12 09:55N 55°42' E 012°36'0 0.0
2019-Jul-12 08:58N 55°42' E 012°36'0 0.0
2019-Jul-12 07:42N 55°42' E 012°36'0 1.9
2019-Jul-12 07:31N 55°42' E 012°36'510.4
2019-Jul-12 07:00N 55°47' E 012°42'713.9
2019-Jul-12 06:30N 55°54' E 012°40'714.1
2019-Jul-12 06:00N 56°01' E 012°40'713.2
2019-Jul-12 05:31N 56°06' E 012°33'714.3
2019-Jul-12 05:01N 56°12' E 012°27'  

Dump ship's entire track history